createdAt,value
2023-04-15T00:01:39.819Z,101094.47
2023-04-15T00:04:06.510Z,101086.47
2023-04-15T00:06:33.134Z,101083.81
2023-04-15T00:09:00.092Z,101089.19
2023-04-15T00:11:26.854Z,101082.03
2023-04-15T00:13:53.405Z,101081.19
2023-04-15T00:16:23.057Z,101077.69
2023-04-15T00:18:49.607Z,101084.81
2023-04-15T00:21:16.179Z,101091.09
2023-04-15T00:23:42.783Z,101087.56
2023-04-15T00:26:09.696Z,101091.09
2023-04-15T00:28:36.254Z,101087.69
2023-04-15T00:31:02.884Z,101089.41
2023-04-15T00:33:29.533Z,101091.16
2023-04-15T00:35:58.488Z,101087.63
2023-04-15T00:38:27.105Z,101087.63
2023-04-15T00:40:56.655Z,101090.38
2023-04-15T00:43:23.229Z,101096.44
2023-04-15T00:45:52.281Z,101089.41
2023-04-15T00:48:19.150Z,101090.25
2023-04-15T00:50:45.712Z,101090.47
2023-04-15T00:53:12.375Z,101094.78
2023-04-15T00:55:41.451Z,101100.19
2023-04-15T00:58:08.055Z,101096.63
2023-04-15T01:00:41.502Z,101100.19
2023-04-15T01:03:08.860Z,101108.03
2023-04-15T01:05:43.568Z,101103.78
2023-04-15T01:08:10.669Z,101102.03
2023-04-15T01:10:37.933Z,101094.91
2023-04-15T01:13:07.070Z,101105.72
2023-04-15T01:15:34.486Z,101100.34
2023-04-15T01:18:03.209Z,101105.72
2023-04-15T01:20:29.878Z,101112.91
2023-04-15T01:22:56.475Z,101111.09
2023-04-15T01:25:33.374Z,101114.69
2023-04-15T01:28:00.660Z,101107.53
2023-04-15T01:30:27.235Z,101112.91
2023-04-15T01:32:53.952Z,101111.09
2023-04-15T01:35:21.544Z,101109.34
2023-04-15T01:37:48.588Z,101114.81
2023-04-15T01:40:15.340Z,101109.44
2023-04-15T01:42:41.888Z,101113.09
2023-04-15T01:45:09.143Z,101114.81
2023-04-15T01:47:35.732Z,101109.53
2023-04-15T01:50:02.337Z,101109.34
2023-04-15T01:52:28.904Z,101112.09
2023-04-15T01:54:55.733Z,101112.22
2023-04-15T01:57:31.416Z,101117.47
2023-04-15T02:00:07.218Z,101118.38
2023-04-15T02:02:34.643Z,101118.47
2023-04-15T02:05:01.314Z,101110.44
2023-04-15T02:07:29.015Z,101116.72
2023-04-15T02:09:55.566Z,101110.44
2023-04-15T02:12:22.107Z,101115.88
2023-04-15T02:14:48.668Z,101114.97
2023-04-15T02:17:15.594Z,101120.34
2023-04-15T02:19:42.328Z,101115.84
2023-04-15T02:22:09.419Z,101118.56
2023-04-15T02:24:36.032Z,101123.84
2023-04-15T02:27:03.594Z,101119.44
2023-04-15T02:29:32.490Z,101135.50
2023-04-15T02:31:59.171Z,101138.22
2023-04-15T02:34:27.306Z,101140.06
2023-04-15T02:36:57.845Z,101147.22
2023-04-15T02:39:24.420Z,101149.00
2023-04-15T02:41:53.756Z,101154.38
2023-04-15T02:44:20.634Z,101155.22
2023-04-15T02:46:50.874Z,101148.16
2023-04-15T02:49:17.440Z,101155.34
2023-04-15T02:51:45.284Z,101160.63
2023-04-15T02:54:12.020Z,101161.50
2023-04-15T02:56:38.566Z,101155.41
2023-04-15T02:59:05.182Z,101163.44
2023-04-15T03:01:31.761Z,101159.81
2023-04-15T03:03:58.427Z,101159.84
2023-04-15T03:06:25.107Z,101166.22
2023-04-15T03:08:51.912Z,101174.16
2023-04-15T03:11:20.325Z,101173.31
2023-04-15T03:13:47.281Z,101167.91
2023-04-15T03:16:13.858Z,101174.06
2023-04-15T03:18:40.769Z,101179.50
2023-04-15T03:21:07.391Z,101174.13
2023-04-15T03:23:33.952Z,101176.94
2023-04-15T03:26:03.853Z,101180.53
2023-04-15T03:28:30.782Z,101182.31
2023-04-15T03:30:57.393Z,101183.16
2023-04-15T03:33:24.017Z,101185.84
2023-04-15T03:35:51.969Z,101190.25
2023-04-15T03:38:18.917Z,101183.13
2023-04-15T03:40:47.767Z,101182.13
2023-04-15T03:43:14.374Z,101187.63
2023-04-15T03:45:40.935Z,101187.63
2023-04-15T03:48:17.335Z,101202.91
2023-04-15T03:50:44.850Z,101188.56
2023-04-15T03:53:11.474Z,101202.72
2023-04-15T03:55:38.047Z,101199.13
2023-04-15T03:58:04.617Z,101200.22
2023-04-15T04:00:31.233Z,101202.00
2023-04-15T04:02:57.956Z,101207.34
2023-04-15T04:05:24.756Z,101206.34
2023-04-15T04:07:51.286Z,101206.34
2023-04-15T04:10:18.865Z,101208.91
2023-04-15T04:12:45.583Z,101213.44
2023-04-15T04:15:12.488Z,101217.06
2023-04-15T04:17:42.349Z,101210.91
2023-04-15T04:20:09.145Z,101218.00
2023-04-15T04:22:41.770Z,101220.84
2023-04-15T04:25:10.185Z,101213.66
2023-04-15T04:27:37.056Z,101215.38
2023-04-15T04:30:04.285Z,101227.94
2023-04-15T04:32:30.846Z,101221.72
2023-04-15T04:34:57.436Z,101228.88
2023-04-15T04:37:24.701Z,101226.16
2023-04-15T04:39:51.253Z,101231.56
2023-04-15T04:42:17.818Z,101232.41
2023-04-15T04:44:47.040Z,101228.00
2023-04-15T04:47:14.055Z,101235.19
2023-04-15T04:49:41.206Z,101236.84
2023-04-15T04:52:07.783Z,101242.31
2023-04-15T04:54:34.375Z,101244.00
2023-04-15T04:57:01.704Z,101248.50
2023-04-15T04:59:28.268Z,101246.69
2023-04-15T05:01:57.420Z,101252.97
2023-04-15T05:04:24.022Z,101260.22
2023-04-15T05:06:50.587Z,101254.84
2023-04-15T05:09:17.247Z,101254.81
2023-04-15T05:11:43.814Z,101259.31
2023-04-15T05:14:10.398Z,101245.03
2023-04-15T05:16:36.974Z,101258.44
2023-04-15T05:19:03.630Z,101263.78
2023-04-15T05:21:34.473Z,101254.88
2023-04-15T05:24:01.026Z,101256.63
2023-04-15T05:26:27.620Z,101260.16
2023-04-15T05:28:54.262Z,101262.91
2023-04-15T05:31:21.026Z,101260.28
2023-04-15T05:33:47.668Z,101272.72
2023-04-15T05:36:17.478Z,101269.09
2023-04-15T05:38:44.063Z,101272.75
2023-04-15T05:41:10.634Z,101272.72
2023-04-15T05:43:37.186Z,101283.44
2023-04-15T05:46:03.775Z,101278.06
2023-04-15T05:48:30.601Z,101279.84
2023-04-15T05:50:57.272Z,101278.03
2023-04-15T05:53:23.899Z,101281.63
2023-04-15T05:55:50.484Z,101281.63
2023-04-15T05:58:17.075Z,101285.28
2023-04-15T06:00:44.762Z,101285.28
2023-04-15T06:03:11.941Z,101295.16
2023-04-15T06:05:38.586Z,101296.06
2023-04-15T06:08:05.337Z,101291.56
2023-04-15T06:10:36.449Z,101308.53
2023-04-15T06:13:04.267Z,101308.50
2023-04-15T06:15:31.258Z,101315.63
2023-04-15T06:17:57.990Z,101315.59
2023-04-15T06:20:24.639Z,101317.38
2023-04-15T06:22:51.493Z,101322.72
2023-04-15T06:25:18.185Z,101329.88
2023-04-15T06:27:44.795Z,101326.25
2023-04-15T06:30:12.108Z,101333.41
2023-04-15T06:32:38.775Z,101337.88
2023-04-15T06:35:05.563Z,101333.41
2023-04-15T06:37:32.696Z,101348.59
2023-04-15T06:39:59.247Z,101345.91
2023-04-15T06:42:25.885Z,101353.84
2023-04-15T06:44:52.487Z,101360.16
2023-04-15T06:47:19.853Z,101362.78
2023-04-15T06:49:46.512Z,101363.69
2023-04-15T06:52:13.580Z,101361.91
2023-04-15T06:54:40.215Z,101354.72
2023-04-15T06:57:07.489Z,101354.75
2023-04-15T06:59:34.109Z,101363.69
2023-04-15T07:02:00.728Z,101369.94
2023-04-15T07:04:27.909Z,101367.25
2023-04-15T07:06:55.626Z,101365.44
2023-04-15T07:09:23.463Z,101367.22
2023-04-15T07:11:50.059Z,101365.41
2023-04-15T07:14:16.752Z,101378.81
2023-04-15T07:16:43.353Z,101388.63
2023-04-15T07:19:09.986Z,101392.16
2023-04-15T07:21:36.562Z,101390.38
2023-04-15T07:24:03.110Z,101388.63
2023-04-15T07:26:29.742Z,101394.84
2023-04-15T07:28:56.348Z,101392.16
2023-04-15T07:31:22.937Z,101399.25
2023-04-15T07:33:49.527Z,101398.31
2023-04-15T07:36:16.059Z,101405.41
2023-04-15T07:38:43.189Z,101402.72
2023-04-15T07:41:10.623Z,101413.44
2023-04-15T07:43:37.198Z,101411.69
2023-04-15T07:46:04.013Z,101417.91
2023-04-15T07:48:30.712Z,101433.91
2023-04-15T07:50:57.324Z,101423.22
2023-04-15T07:53:24.062Z,101425.88
2023-04-15T07:55:50.751Z,101431.28
2023-04-15T07:58:17.382Z,101429.50
2023-04-15T08:00:43.972Z,101427.72
2023-04-15T08:03:11.119Z,101433.09
2023-04-15T08:05:37.855Z,101432.22
2023-04-15T08:08:04.602Z,101439.34
2023-04-15T08:10:31.529Z,101443.78
2023-04-15T08:12:58.528Z,101438.44
2023-04-15T08:15:26.629Z,101442.00
2023-04-15T08:17:53.297Z,101442.00
2023-04-15T08:20:19.925Z,101448.28
2023-04-15T08:22:47.896Z,101442.91
2023-04-15T08:25:14.713Z,101450.94
2023-04-15T08:27:41.275Z,101441.16
2023-04-15T08:30:10.857Z,101445.59
2023-04-15T08:32:37.921Z,101446.53
2023-04-15T08:35:04.908Z,101442.03
2023-04-15T08:37:32.093Z,101445.63
2023-04-15T08:39:58.662Z,101445.59
2023-04-15T08:42:31.829Z,101436.72
2023-04-15T08:45:00.929Z,101435.81
2023-04-15T08:47:32.990Z,101445.63
2023-04-15T08:50:02.677Z,101451.00
2023-04-15T08:52:31.607Z,101447.44
2023-04-15T08:54:59.259Z,101445.66
2023-04-15T08:57:29.217Z,101449.19
2023-04-15T09:00:03.004Z,101447.41
2023-04-15T09:02:30.831Z,101458.13
2023-04-15T09:04:57.664Z,101454.53
2023-04-15T09:07:27.272Z,101461.69
2023-04-15T09:09:54.214Z,101466.97
2023-04-15T09:12:20.876Z,101472.31
2023-04-15T09:14:48.270Z,101470.44
2023-04-15T09:17:27.862Z,101478.47
2023-04-15T09:20:10.070Z,101479.38
2023-04-15T09:22:39.935Z,101481.09
2023-04-15T09:25:28.254Z,101493.63
2023-04-15T09:27:57.540Z,101485.56
2023-04-15T09:30:24.371Z,101490.03
2023-04-15T09:32:52.134Z,101492.69
2023-04-15T09:35:19.140Z,101495.31
2023-04-15T09:37:46.088Z,101506.03
2023-04-15T09:40:13.227Z,101495.31
2023-04-15T09:42:56.155Z,101508.69
2023-04-15T09:45:29.690Z,101500.66
2023-04-15T09:48:15.662Z,101509.56
2023-04-15T09:50:43.009Z,101509.56
2023-04-15T09:53:10.722Z,101509.59
2023-04-15T09:55:37.467Z,101504.25
2023-04-15T09:58:09.367Z,101506.03
2023-04-15T10:00:36.291Z,101506.03
2023-04-15T10:03:04.320Z,101506.91
2023-04-15T10:05:31.644Z,101514.97
2023-04-15T10:07:58.749Z,101516.75
2023-04-15T10:10:25.693Z,101506.03
2023-04-15T10:12:52.676Z,101516.75
2023-04-15T10:15:19.423Z,101514.97
2023-04-15T10:17:50.742Z,101525.66
2023-04-15T10:20:17.848Z,101517.66
2023-04-15T10:22:49.456Z,101515.84
2023-04-15T10:25:16.495Z,101531.00
2023-04-15T10:27:47.920Z,101529.25
2023-04-15T10:30:17.675Z,101531.00
2023-04-15T10:32:48.257Z,101533.63
2023-04-15T10:35:15.137Z,101531.84
2023-04-15T10:37:41.813Z,101532.72
2023-04-15T10:40:34.672Z,101538.09
2023-04-15T10:43:02.607Z,101529.19
2023-04-15T10:45:34.082Z,101535.44
2023-04-15T10:48:03.696Z,101539.00
2023-04-15T10:50:34.005Z,101540.81
2023-04-15T10:53:04.868Z,101533.69
2023-04-15T10:55:34.815Z,101537.25
2023-04-15T10:58:02.548Z,101548.84
2023-04-15T11:00:33.143Z,101541.69
2023-04-15T11:03:07.114Z,101549.78
2023-04-15T11:05:44.555Z,101552.41
2023-04-15T11:08:12.549Z,101550.59
2023-04-15T11:10:39.046Z,101547.03
2023-04-15T11:13:06.324Z,101559.53
2023-04-15T11:15:42.814Z,101557.72
2023-04-15T11:18:10.153Z,101562.19
2023-04-15T11:20:37.705Z,101565.75
2023-04-15T11:23:14.334Z,101564.84
2023-04-15T11:25:43.202Z,101572.00
2023-04-15T11:28:11.446Z,101578.22
2023-04-15T11:30:42.828Z,101579.16
2023-04-15T11:33:13.658Z,101584.50
2023-04-15T11:35:43.014Z,101582.69
2023-04-15T11:38:12.074Z,101593.38
2023-04-15T11:40:39.312Z,101583.59
2023-04-15T11:43:17.646Z,101580.91
2023-04-15T11:46:04.738Z,101584.47
2023-04-15T11:48:36.273Z,101589.78
2023-04-15T11:51:07.437Z,101585.38
2023-04-15T11:53:41.538Z,101588.91
2023-04-15T11:56:10.075Z,101591.63
2023-04-15T11:58:38.276Z,101593.38
2023-04-15T12:01:06.594Z,101594.28
2023-04-15T12:03:46.487Z,101600.56
2023-04-15T12:06:21.072Z,101600.56
2023-04-15T12:09:01.556Z,101602.34
2023-04-15T12:11:30.842Z,101604.09
2023-04-15T12:14:05.312Z,101602.34
2023-04-15T12:16:36.497Z,101612.19
2023-04-15T12:19:13.039Z,101611.28
2023-04-15T12:21:41.920Z,101621.06
2023-04-15T12:24:10.313Z,101622.88
2023-04-15T12:26:53.818Z,101623.75
2023-04-15T12:29:21.265Z,101631.78
2023-04-15T12:31:52.868Z,101625.56
2023-04-15T12:34:40.833Z,101630.00
2023-04-15T12:37:26.165Z,101637.16
2023-04-15T12:39:54.055Z,101630.00
2023-04-15T12:42:20.836Z,101627.34
2023-04-15T12:44:47.418Z,101636.25
2023-04-15T12:47:17.067Z,101634.47
2023-04-15T12:49:45.205Z,101638.06
2023-04-15T12:52:15.105Z,101632.66
2023-04-15T12:54:41.732Z,101640.69
2023-04-15T12:57:08.966Z,101642.47
2023-04-15T12:59:36.128Z,101638.91
2023-04-15T13:02:03.328Z,101639.78
2023-04-15T13:04:31.390Z,101648.75
2023-04-15T13:06:58.255Z,101642.47
2023-04-15T13:09:25.120Z,101645.16
2023-04-15T13:11:51.741Z,101646.94
2023-04-15T13:14:18.292Z,101652.28
2023-04-15T13:16:44.855Z,101652.28
2023-04-15T13:19:11.455Z,101655.81
2023-04-15T13:21:38.033Z,101646.91
2023-04-15T13:24:07.252Z,101664.78
2023-04-15T13:26:34.183Z,101666.59
2023-04-15T13:29:01.313Z,101668.38
2023-04-15T13:31:30.817Z,101670.19
2023-04-15T13:34:00.156Z,101671.09
2023-04-15T13:36:27.497Z,101670.16
2023-04-15T13:39:00.446Z,101663.00
2023-04-15T13:41:26.993Z,101671.97
2023-04-15T13:43:53.626Z,101678.19
2023-04-15T13:46:20.417Z,101667.44
2023-04-15T13:48:47.054Z,101675.50
2023-04-15T13:51:13.605Z,101682.63
2023-04-15T13:53:40.318Z,101681.75
2023-04-15T13:56:08.210Z,101679.09
2023-04-15T13:58:34.859Z,101692.50
2023-04-15T14:01:03.153Z,101688.94
2023-04-15T14:03:30.748Z,101693.41
2023-04-15T14:05:58.105Z,101700.56
2023-04-15T14:08:25.403Z,101692.53
2023-04-15T14:10:52.112Z,101698.75
2023-04-15T14:13:19.712Z,101703.28
2023-04-15T14:15:46.762Z,101709.50
2023-04-15T14:18:13.389Z,101704.13
2023-04-15T14:20:39.960Z,101708.59
2023-04-15T14:23:06.537Z,101710.41
2023-04-15T14:25:34.225Z,101718.44
2023-04-15T14:28:01.741Z,101713.97
2023-04-15T14:30:28.295Z,101711.31
2023-04-15T14:32:54.964Z,101714.94
2023-04-15T14:35:21.584Z,101712.25
2023-04-15T14:37:48.161Z,101717.59
2023-04-15T14:40:14.731Z,101729.25
2023-04-15T14:42:41.332Z,101722.13
2023-04-15T14:45:08.563Z,101730.16
2023-04-15T14:47:35.218Z,101732.84
2023-04-15T14:50:02.559Z,101727.44
2023-04-15T14:52:30.419Z,101730.16
2023-04-15T14:54:57.005Z,101737.34
2023-04-15T14:57:23.573Z,101738.19
2023-04-15T14:59:50.193Z,101731.06
2023-04-15T15:02:31.624Z,101740.03
2023-04-15T15:05:03.610Z,101741.81
2023-04-15T15:07:30.314Z,101750.72
2023-04-15T15:09:56.915Z,101746.28
2023-04-15T15:12:23.599Z,101760.63
2023-04-15T15:14:56.111Z,101768.66
2023-04-15T15:17:22.770Z,101763.28
2023-04-15T15:19:49.476Z,101767.75
2023-04-15T15:22:20.863Z,101772.22
2023-04-15T15:24:48.121Z,101779.38
2023-04-15T15:27:14.755Z,101775.81
2023-04-15T15:29:41.379Z,101777.59
2023-04-15T15:32:09.921Z,101782.06
2023-04-15T15:34:36.508Z,101780.28
2023-04-15T15:37:03.057Z,101786.50
2023-04-15T15:39:29.612Z,101788.31
2023-04-15T15:41:56.213Z,101782.94
2023-04-15T15:44:22.757Z,101788.31
2023-04-15T15:46:50.576Z,101791.88
2023-04-15T15:49:17.173Z,101785.63
2023-04-15T15:51:43.791Z,101793.69
2023-04-15T15:54:10.459Z,101791.88
2023-04-15T15:56:38.468Z,101792.78
2023-04-15T15:59:05.382Z,101799.91
2023-04-15T16:01:32.201Z,101806.19
2023-04-15T16:03:59.514Z,101797.25
2023-04-15T16:06:26.622Z,101805.28
2023-04-15T16:08:53.194Z,101797.25
2023-04-15T16:11:19.749Z,101812.44
2023-04-15T16:13:46.498Z,101809.75
2023-04-15T16:16:13.071Z,101808.00
2023-04-15T16:18:39.677Z,101815.13
2023-04-15T16:21:06.389Z,101815.13
2023-04-15T16:23:33.007Z,101815.13
2023-04-15T16:25:59.707Z,101805.28
2023-04-15T16:28:27.331Z,101822.25
2023-04-15T16:30:54.527Z,101821.38
2023-04-15T16:33:21.181Z,101820.47
2023-04-15T16:35:47.797Z,101817.81
2023-04-15T16:38:14.384Z,101831.19
2023-04-15T16:40:41.273Z,101826.72
2023-04-15T16:43:08.215Z,101834.75
2023-04-15T16:45:34.855Z,101826.72
2023-04-15T16:48:01.574Z,101829.41
2023-04-15T16:50:28.199Z,101829.41
2023-04-15T16:52:55.241Z,101827.63
2023-04-15T16:55:21.919Z,101824.06
2023-04-15T16:58:01.415Z,101827.63
2023-04-15T17:00:29.616Z,101835.66
2023-04-15T17:02:56.322Z,101829.41
2023-04-15T17:05:23.127Z,101833.88
2023-04-15T17:07:49.694Z,101836.56
2023-04-15T17:10:16.531Z,101847.28
2023-04-15T17:12:43.138Z,101849.97
2023-04-15T17:15:10.140Z,101846.38
2023-04-15T17:17:36.702Z,101861.56
2023-04-15T17:20:03.812Z,101858.88
2023-04-15T17:22:30.398Z,101864.22
2023-04-15T17:24:57.110Z,101865.13
2023-04-15T17:27:24.758Z,101866.03
2023-04-15T17:29:51.463Z,101874.94
2023-04-15T17:32:18.093Z,101868.66
2023-04-15T17:34:49.769Z,101876.72
2023-04-15T17:37:18.006Z,101872.25
2023-04-15T17:39:44.613Z,101881.19
2023-04-15T17:42:11.590Z,101876.75
2023-04-15T17:44:38.173Z,101880.31
2023-04-15T17:47:04.782Z,101875.84
2023-04-15T17:49:31.478Z,101883.00
2023-04-15T17:51:58.043Z,101884.78
2023-04-15T17:54:24.582Z,101883.91
2023-04-15T17:56:51.689Z,101895.50
2023-04-15T17:59:18.258Z,101893.69
2023-04-15T18:01:45.614Z,101898.19
2023-04-15T18:04:12.752Z,101897.28
2023-04-15T18:06:39.529Z,101906.25
2023-04-15T18:09:06.814Z,101909.81
2023-04-15T18:11:33.561Z,101899.97
2023-04-15T18:14:02.109Z,101902.66
2023-04-15T18:16:28.715Z,101911.59
2023-04-15T18:18:55.300Z,101922.28
2023-04-15T18:21:21.865Z,101913.34
2023-04-15T18:23:48.454Z,101915.16
2023-04-15T18:26:15.005Z,101908.91
2023-04-15T18:28:41.568Z,101919.59
2023-04-15T18:31:08.128Z,101924.97
2023-04-15T18:33:35.825Z,101924.97
2023-04-15T18:36:05.657Z,101924.09
2023-04-15T18:38:32.253Z,101920.53
2023-04-15T18:40:58.909Z,101936.59
2023-04-15T18:43:25.488Z,101938.38
2023-04-15T18:45:53.015Z,101948.19
2023-04-15T18:48:19.663Z,101943.75
2023-04-15T18:50:46.250Z,101955.34
2023-04-15T18:53:12.916Z,101966.97
2023-04-15T18:55:40.034Z,101959.81
2023-04-15T18:58:08.849Z,101965.16
2023-04-15T19:00:39.063Z,101961.59
2023-04-15T19:03:06.495Z,101972.31
2023-04-15T19:05:33.421Z,101977.69
2023-04-15T19:07:59.995Z,101977.66
2023-04-15T19:10:28.086Z,101983.03
2023-04-15T19:12:55.514Z,101979.47
2023-04-15T19:15:22.177Z,101995.53
2023-04-15T19:17:48.855Z,101992.84
2023-04-15T19:20:15.560Z,101988.38
2023-04-15T19:22:43.162Z,101995.53
2023-04-15T19:25:09.995Z,101996.41
2023-04-15T19:27:38.198Z,101987.50
2023-04-15T19:30:06.201Z,101991.97
2023-04-15T19:32:32.811Z,101985.72
2023-04-15T19:34:59.451Z,101991.97
2023-04-15T19:37:26.058Z,101997.31
2023-04-15T19:39:54.284Z,101991.94
2023-04-15T19:42:20.896Z,101991.06
2023-04-15T19:44:47.452Z,101991.94
2023-04-15T19:47:13.996Z,101986.59
2023-04-15T19:49:40.770Z,101984.81
2023-04-15T19:52:07.305Z,101980.34
2023-04-15T19:54:33.850Z,101988.38
2023-04-15T19:57:02.097Z,101995.53
2023-04-15T19:59:28.735Z,101992.81
2023-04-15T20:01:55.448Z,101992.81
2023-04-15T20:04:22.735Z,101999.94
2023-04-15T20:06:49.922Z,101989.25
2023-04-15T20:09:16.647Z,101991.94
2023-04-15T20:12:46.851Z,101997.31
2023-04-15T20:14:29.895Z,101996.38
2023-04-15T20:16:56.934Z,101997.28
2023-04-15T20:19:23.557Z,101997.28
2023-04-15T20:21:52.439Z,102000.84
2023-04-15T20:24:20.231Z,101999.03
2023-04-15T20:26:47.133Z,101990.13
2023-04-15T20:29:13.889Z,101993.69
2023-04-15T20:31:40.485Z,101992.81
2023-04-15T20:34:07.811Z,102001.75
2023-04-15T20:36:36.319Z,101997.25
2023-04-15T20:39:03.111Z,102005.28
2023-04-15T20:41:29.892Z,102003.47
2023-04-15T20:43:56.448Z,102010.66
2023-04-15T20:46:24.527Z,102012.38
2023-04-15T20:48:52.485Z,102011.53
2023-04-15T20:51:19.125Z,102013.31
2023-04-15T20:53:45.954Z,102016.03
2023-04-15T20:56:12.512Z,102022.28
2023-04-15T20:58:39.359Z,102013.28
2023-04-15T21:01:05.992Z,102021.31
2023-04-15T21:03:32.746Z,102024.00
2023-04-15T21:05:59.417Z,102017.75
2023-04-15T21:08:29.618Z,102017.75
2023-04-15T21:10:56.924Z,102017.75
2023-04-15T21:13:23.910Z,102016.84
2023-04-15T21:15:53.432Z,102009.72
2023-04-15T21:18:21.196Z,102016.84
2023-04-15T21:20:56.275Z,102018.63
2023-04-15T21:23:22.825Z,102026.63
2023-04-15T21:25:49.382Z,102020.38
2023-04-15T21:28:15.964Z,102031.13
2023-04-15T21:30:42.525Z,102032.00
2023-04-15T21:33:09.063Z,102027.53
2023-04-15T21:35:35.705Z,102028.44
2023-04-15T21:38:02.269Z,102043.63
2023-04-15T21:40:29.018Z,102041.81
2023-04-15T21:42:55.565Z,102045.41
2023-04-15T21:45:22.082Z,102049.84
2023-04-15T21:48:00.513Z,102047.22
2023-04-15T21:50:35.730Z,102062.34
2023-04-15T21:53:03.098Z,102063.25
2023-04-15T21:55:29.751Z,102060.56
2023-04-15T21:57:56.332Z,102070.38
2023-04-15T22:00:23.169Z,102063.25
2023-04-15T22:02:51.470Z,102073.94
2023-04-15T22:05:18.206Z,102072.16
2023-04-15T22:07:44.815Z,102065.91
2023-04-15T22:10:11.434Z,102062.31
2023-04-15T22:12:40.881Z,102064.09
2023-04-15T22:15:08.117Z,102070.34
2023-04-15T22:17:34.719Z,102073.03
2023-04-15T22:20:01.267Z,102072.16
2023-04-15T22:22:27.874Z,102067.66
2023-04-15T22:25:10.290Z,102076.59
2023-04-15T22:27:36.834Z,102080.19
2023-04-15T22:30:03.606Z,102078.34
2023-04-15T22:32:30.454Z,102084.59
2023-04-15T22:34:57.078Z,102078.34
2023-04-15T22:37:24.219Z,102084.59
2023-04-15T22:39:51.825Z,102081.03
2023-04-15T22:42:18.396Z,102089.03
2023-04-15T22:44:45.055Z,102082.78
2023-04-15T22:47:11.605Z,102088.13
2023-04-15T22:49:39.449Z,102088.13
2023-04-15T22:52:06.101Z,102089.03
2023-04-15T22:54:32.713Z,102091.69
2023-04-15T22:56:59.295Z,102096.16
2023-04-15T22:59:25.912Z,102104.19
2023-04-15T23:01:53.366Z,102106.88
2023-04-15T23:04:23.162Z,102104.19
2023-04-15T23:06:52.518Z,102110.44
2023-04-15T23:09:19.097Z,102106.84
2023-04-15T23:11:45.642Z,102111.31
2023-04-15T23:14:12.203Z,102120.22
2023-04-15T23:16:38.906Z,102125.50
2023-04-15T23:19:05.529Z,102120.25
2023-04-15T23:21:32.112Z,102123.78
2023-04-15T23:23:58.745Z,102110.41
2023-04-15T23:26:25.293Z,102125.50
2023-04-15T23:28:51.852Z,102119.28
2023-04-15T23:31:18.464Z,102132.72
2023-04-15T23:33:45.031Z,102122.91
2023-04-15T23:36:11.624Z,102129.06
2023-04-15T23:38:38.254Z,102116.59
2023-04-15T23:41:04.901Z,102113.06
2023-04-15T23:43:31.501Z,102114.81
2023-04-15T23:45:58.067Z,102110.31
2023-04-15T23:48:24.706Z,102121.03
2023-04-15T23:50:51.307Z,102118.34
2023-04-15T23:53:17.887Z,102125.50
2023-04-15T23:55:44.504Z,102127.34
2023-04-15T23:58:11.091Z,102127.31
